sensor_id;sensor_type;location;lat;lon;timestamp;P1;durP1;ratioP1;P2;durP2;ratioP2
10641;SDS011;5369;49.586;8.646;2022-09-09T00:00:40;2.00;;;1.10;;
10641;SDS011;5369;49.586;8.646;2022-09-09T00:08:11;3.97;;;1.30;;
10641;SDS011;5369;49.586;8.646;2022-09-09T00:10:41;2.10;;;1.30;;
10641;SDS011;5369;49.586;8.646;2022-09-09T00:13:16;2.40;;;1.23;;
10641;SDS011;5369;49.586;8.646;2022-09-09T00:23:34;1.83;;;1.40;;
10641;SDS011;5369;49.586;8.646;2022-09-09T00:28:52;2.27;;;1.30;;
10641;SDS011;5369;49.586;8.646;2022-09-09T00:31:23;2.40;;;1.37;;
10641;SDS011;5369;49.586;8.646;2022-09-09T00:33:51;4.10;;;1.43;;
10641;SDS011;5369;49.586;8.646;2022-09-09T00:36:20;2.10;;;1.50;;
10641;SDS011;5369;49.586;8.646;2022-09-09T00:38:49;4.43;;;1.57;;
10641;SDS011;5369;49.586;8.646;2022-09-09T00:41:19;3.17;;;1.40;;
10641;SDS011;5369;49.586;8.646;2022-09-09T00:43:56;4.03;;;1.40;;
10641;SDS011;5369;49.586;8.646;2022-09-09T00:46:48;2.87;;;1.50;;
10641;SDS011;5369;49.586;8.646;2022-09-09T00:54:48;2.53;;;1.40;;
10641;SDS011;5369;49.586;8.646;2022-09-09T00:59:46;2.63;;;1.20;;
10641;SDS011;5369;49.586;8.646;2022-09-09T01:02:18;4.13;;;1.20;;
10641;SDS011;5369;49.586;8.646;2022-09-09T01:04:47;3.03;;;1.30;;
10641;SDS011;5369;49.586;8.646;2022-09-09T01:07:16;3.20;;;1.40;;
10641;SDS011;5369;49.586;8.646;2022-09-09T01:09:59;2.20;;;1.30;;
10641;SDS011;5369;49.586;8.646;2022-09-09T01:12:29;2.90;;;1.30;;
10641;SDS011;5369;49.586;8.646;2022-09-09T01:15:03;2.60;;;1.30;;
10641;SDS011;5369;49.586;8.646;2022-09-09T01:17:44;3.57;;;1.37;;
10641;SDS011;5369;49.586;8.646;2022-09-09T01:28:19;4.13;;;1.57;;
10641;SDS011;5369;49.586;8.646;2022-09-09T01:30:48;3.47;;;1.47;;
10641;SDS011;5369;49.586;8.646;2022-09-09T01:33:18;2.70;;;1.40;;
10641;SDS011;5369;49.586;8.646;2022-09-09T01:38:16;2.90;;;1.33;;
10641;SDS011;5369;49.586;8.646;2022-09-09T01:40:43;2.80;;;1.40;;
10641;SDS011;5369;49.586;8.646;2022-09-09T01:43:10;3.80;;;1.60;;
10641;SDS011;5369;49.586;8.646;2022-09-09T01:45:36;4.47;;;1.60;;
10641;SDS011;5369;49.586;8.646;2022-09-09T01:48:03;3.23;;;1.60;;
10641;SDS011;5369;49.586;8.646;2022-09-09T01:50:55;3.80;;;1.50;;
10641;SDS011;5369;49.586;8.646;2022-09-09T01:53:22;3.90;;;1.50;;
10641;SDS011;5369;49.586;8.646;2022-09-09T01:55:52;3.70;;;1.37;;
10641;SDS011;5369;49.586;8.646;2022-09-09T02:01:35;3.47;;;1.53;;
10641;SDS011;5369;49.586;8.646;2022-09-09T02:04:49;3.07;;;1.47;;
10641;SDS011;5369;49.586;8.646;2022-09-09T02:06:56;4.73;;;1.50;;
10641;SDS011;5369;49.586;8.646;2022-09-09T02:09:26;4.57;;;1.60;;
10641;SDS011;5369;49.586;8.646;2022-09-09T02:11:58;3.50;;;1.40;;
10641;SDS011;5369;49.586;8.646;2022-09-09T02:14:36;3.40;;;1.57;;
10641;SDS011;5369;49.586;8.646;2022-09-09T02:17:09;4.07;;;1.47;;
10641;SDS011;5369;49.586;8.646;2022-09-09T02:19:53;3.67;;;1.73;;
10641;SDS011;5369;49.586;8.646;2022-09-09T02:22:32;4.30;;;1.70;;
10641;SDS011;5369;49.586;8.646;2022-09-09T02:25:00;2.20;;;1.40;;
10641;SDS011;5369;49.586;8.646;2022-09-09T02:27:28;2.13;;;1.60;;
10641;SDS011;5369;49.586;8.646;2022-09-09T02:29:55;2.83;;;1.40;;
10641;SDS011;5369;49.586;8.646;2022-09-09T02:32:34;3.47;;;1.50;;
10641;SDS011;5369;49.586;8.646;2022-09-09T02:35:05;6.17;;;1.70;;
10641;SDS011;5369;49.586;8.646;2022-09-09T02:37:34;2.50;;;1.53;;
10641;SDS011;5369;49.586;8.646;2022-09-09T02:40:02;4.23;;;1.50;;
10641;SDS011;5369;49.586;8.646;2022-09-09T02:42:31;4.33;;;1.67;;
10641;SDS011;5369;49.586;8.646;2022-09-09T02:44:59;4.33;;;1.67;;
10641;SDS011;5369;49.586;8.646;2022-09-09T02:47:35;4.03;;;1.70;;
10641;SDS011;5369;49.586;8.646;2022-09-09T02:50:11;3.57;;;1.60;;
10641;SDS011;5369;49.586;8.646;2022-09-09T02:52:42;2.77;;;1.63;;
10641;SDS011;5369;49.586;8.646;2022-09-09T02:55:12;3.77;;;2.03;;
10641;SDS011;5369;49.586;8.646;2022-09-09T02:57:39;3.77;;;1.67;;
10641;SDS011;5369;49.586;8.646;2022-09-09T03:00:06;4.30;;;1.63;;
10641;SDS011;5369;49.586;8.646;2022-09-09T03:02:33;3.20;;;1.73;;
10641;SDS011;5369;49.586;8.646;2022-09-09T03:05:05;4.40;;;1.70;;
10641;SDS011;5369;49.586;8.646;2022-09-09T03:07:31;3.50;;;1.80;;
10641;SDS011;5369;49.586;8.646;2022-09-09T03:09:57;3.20;;;1.70;;
10641;SDS011;5369;49.586;8.646;2022-09-09T03:12:25;3.93;;;1.90;;
10641;SDS011;5369;49.586;8.646;2022-09-09T03:14:51;4.57;;;1.70;;
10641;SDS011;5369;49.586;8.646;2022-09-09T03:17:18;3.03;;;1.60;;
10641;SDS011;5369;49.586;8.646;2022-09-09T03:19:49;2.73;;;1.53;;
10641;SDS011;5369;49.586;8.646;2022-09-09T03:22:17;3.07;;;1.70;;
10641;SDS011;5369;49.586;8.646;2022-09-09T03:24:44;4.07;;;1.57;;
10641;SDS011;5369;49.586;8.646;2022-09-09T03:27:12;2.90;;;1.50;;
10641;SDS011;5369;49.586;8.646;2022-09-09T03:29:40;4.37;;;1.77;;
10641;SDS011;5369;49.586;8.646;2022-09-09T03:32:10;3.40;;;1.43;;
10641;SDS011;5369;49.586;8.646;2022-09-09T03:34:38;2.73;;;1.30;;
10641;SDS011;5369;49.586;8.646;2022-09-09T03:37:06;3.17;;;1.60;;
10641;SDS011;5369;49.586;8.646;2022-09-09T03:39:32;3.33;;;1.57;;
10641;SDS011;5369;49.586;8.646;2022-09-09T03:41:58;3.30;;;1.40;;
10641;SDS011;5369;49.586;8.646;2022-09-09T03:44:29;4.50;;;1.63;;
10641;SDS011;5369;49.586;8.646;2022-09-09T03:46:56;4.40;;;1.57;;
10641;SDS011;5369;49.586;8.646;2022-09-09T03:49:25;2.63;;;1.43;;
10641;SDS011;5369;49.586;8.646;2022-09-09T03:51:53;2.17;;;1.40;;
10641;SDS011;5369;49.586;8.646;2022-09-09T03:54:20;2.83;;;1.50;;
10641;SDS011;5369;49.586;8.646;2022-09-09T03:56:46;3.60;;;1.43;;
10641;SDS011;5369;49.586;8.646;2022-09-09T03:59:12;2.83;;;1.50;;
10641;SDS011;5369;49.586;8.646;2022-09-09T04:01:40;2.60;;;1.50;;
10641;SDS011;5369;49.586;8.646;2022-09-09T04:04:07;4.63;;;1.50;;
10641;SDS011;5369;49.586;8.646;2022-09-09T04:06:34;2.93;;;1.43;;
10641;SDS011;5369;49.586;8.646;2022-09-09T04:09:00;3.37;;;1.40;;
10641;SDS011;5369;49.586;8.646;2022-09-09T04:11:29;3.50;;;1.60;;
10641;SDS011;5369;49.586;8.646;2022-09-09T04:13:57;3.20;;;1.60;;
10641;SDS011;5369;49.586;8.646;2022-09-09T04:16:24;3.20;;;1.40;;
10641;SDS011;5369;49.586;8.646;2022-09-09T04:18:50;3.63;;;1.57;;
10641;SDS011;5369;49.586;8.646;2022-09-09T04:21:18;5.63;;;1.60;;
10641;SDS011;5369;49.586;8.646;2022-09-09T04:23:44;2.70;;;1.57;;
10641;SDS011;5369;49.586;8.646;2022-09-09T04:26:10;2.43;;;1.30;;
10641;SDS011;5369;49.586;8.646;2022-09-09T04:28:38;3.00;;;1.43;;
10641;SDS011;5369;49.586;8.646;2022-09-09T04:31:12;2.33;;;1.30;;
10641;SDS011;5369;49.586;8.646;2022-09-09T04:33:40;4.00;;;1.30;;
10641;SDS011;5369;49.586;8.646;2022-09-09T04:36:07;3.47;;;1.20;;
10641;SDS011;5369;49.586;8.646;2022-09-09T04:38:34;3.43;;;1.20;;
10641;SDS011;5369;49.586;8.646;2022-09-09T04:41:01;4.20;;;1.37;;
10641;SDS011;5369;49.586;8.646;2022-09-09T04:43:27;2.27;;;1.20;;
10641;SDS011;5369;49.586;8.646;2022-09-09T04:45:53;4.87;;;1.33;;
10641;SDS011;5369;49.586;8.646;2022-09-09T04:48:22;4.53;;;1.33;;
10641;SDS011;5369;49.586;8.646;2022-09-09T04:51:09;2.43;;;1.00;;
10641;SDS011;5369;49.586;8.646;2022-09-09T04:53:36;3.00;;;1.10;;
10641;SDS011;5369;49.586;8.646;2022-09-09T04:58:32;2.23;;;1.20;;
10641;SDS011;5369;49.586;8.646;2022-09-09T05:01:06;2.53;;;1.13;;
10641;SDS011;5369;49.586;8.646;2022-09-09T05:03:32;2.77;;;1.20;;
10641;SDS011;5369;49.586;8.646;2022-09-09T05:06:18;2.13;;;1.10;;
10641;SDS011;5369;49.586;8.646;2022-09-09T05:08:47;3.47;;;1.20;;
10641;SDS011;5369;49.586;8.646;2022-09-09T05:11:18;3.47;;;1.23;;
10641;SDS011;5369;49.586;8.646;2022-09-09T05:13:45;1.93;;;1.10;;
10641;SDS011;5369;49.586;8.646;2022-09-09T05:16:12;2.67;;;0.97;;
10641;SDS011;5369;49.586;8.646;2022-09-09T05:18:39;2.43;;;1.07;;
10641;SDS011;5369;49.586;8.646;2022-09-09T05:21:06;3.07;;;1.03;;
10641;SDS011;5369;49.586;8.646;2022-09-09T05:23:33;1.40;;;0.90;;
10641;SDS011;5369;49.586;8.646;2022-09-09T05:25:59;1.20;;;1.10;;
10641;SDS011;5369;49.586;8.646;2022-09-09T05:28:27;3.13;;;1.10;;
10641;SDS011;5369;49.586;8.646;2022-09-09T05:30:55;1.97;;;1.10;;
10641;SDS011;5369;49.586;8.646;2022-09-09T05:33:22;3.23;;;1.20;;
10641;SDS011;5369;49.586;8.646;2022-09-09T05:35:54;4.63;;;1.33;;
10641;SDS011;5369;49.586;8.646;2022-09-09T05:38:21;1.83;;;1.07;;
10641;SDS011;5369;49.586;8.646;2022-09-09T05:40:51;3.97;;;1.10;;
10641;SDS011;5369;49.586;8.646;2022-09-09T05:43:20;1.73;;;1.03;;
10641;SDS011;5369;49.586;8.646;2022-09-09T05:45:47;2.17;;;1.20;;
10641;SDS011;5369;49.586;8.646;2022-09-09T05:48:14;2.13;;;1.10;;
10641;SDS011;5369;49.586;8.646;2022-09-09T05:50:41;1.80;;;1.20;;
10641;SDS011;5369;49.586;8.646;2022-09-09T05:53:08;3.53;;;1.20;;
10641;SDS011;5369;49.586;8.646;2022-09-09T05:55:35;3.13;;;1.17;;
10641;SDS011;5369;49.586;8.646;2022-09-09T05:58:03;2.93;;;1.13;;
10641;SDS011;5369;49.586;8.646;2022-09-09T06:00:29;3.63;;;1.30;;
10641;SDS011;5369;49.586;8.646;2022-09-09T06:02:57;2.53;;;1.20;;
10641;SDS011;5369;49.586;8.646;2022-09-09T06:05:24;2.63;;;1.10;;
10641;SDS011;5369;49.586;8.646;2022-09-09T06:07:54;1.97;;;1.10;;
10641;SDS011;5369;49.586;8.646;2022-09-09T06:10:21;2.13;;;1.10;;
10641;SDS011;5369;49.586;8.646;2022-09-09T06:12:47;2.17;;;1.27;;
10641;SDS011;5369;49.586;8.646;2022-09-09T06:15:13;4.30;;;1.20;;
10641;SDS011;5369;49.586;8.646;2022-09-09T06:17:40;2.90;;;1.20;;
10641;SDS011;5369;49.586;8.646;2022-09-09T06:20:07;1.53;;;1.30;;
10641;SDS011;5369;49.586;8.646;2022-09-09T06:22:34;2.80;;;1.10;;
10641;SDS011;5369;49.586;8.646;2022-09-09T06:25:00;3.73;;;1.30;;
10641;SDS011;5369;49.586;8.646;2022-09-09T06:27:27;3.00;;;1.10;;
10641;SDS011;5369;49.586;8.646;2022-09-09T06:29:54;2.23;;;1.07;;
10641;SDS011;5369;49.586;8.646;2022-09-09T06:32:20;3.40;;;1.13;;
10641;SDS011;5369;49.586;8.646;2022-09-09T06:34:46;2.87;;;1.10;;
10641;SDS011;5369;49.586;8.646;2022-09-09T06:37:14;1.77;;;1.07;;
10641;SDS011;5369;49.586;8.646;2022-09-09T06:39:46;4.90;;;1.10;;
10641;SDS011;5369;49.586;8.646;2022-09-09T06:42:13;3.70;;;1.33;;
10641;SDS011;5369;49.586;8.646;2022-09-09T06:44:56;4.33;;;1.20;;
10641;SDS011;5369;49.586;8.646;2022-09-09T06:47:33;2.60;;;1.20;;
10641;SDS011;5369;49.586;8.646;2022-09-09T06:49:59;2.93;;;1.20;;
10641;SDS011;5369;49.586;8.646;2022-09-09T06:52:25;2.60;;;1.37;;
10641;SDS011;5369;49.586;8.646;2022-09-09T06:54:52;3.13;;;0.90;;
10641;SDS011;5369;49.586;8.646;2022-09-09T06:57:19;3.63;;;1.20;;
10641;SDS011;5369;49.586;8.646;2022-09-09T06:59:45;3.13;;;1.20;;
10641;SDS011;5369;49.586;8.646;2022-09-09T07:02:11;2.40;;;1.20;;
10641;SDS011;5369;49.586;8.646;2022-09-09T07:04:37;1.97;;;1.30;;
10641;SDS011;5369;49.586;8.646;2022-09-09T07:07:04;2.00;;;1.00;;
10641;SDS011;5369;49.586;8.646;2022-09-09T07:09:30;5.43;;;1.10;;
10641;SDS011;5369;49.586;8.646;2022-09-09T07:11:57;3.93;;;1.30;;
10641;SDS011;5369;49.586;8.646;2022-09-09T07:14:25;2.53;;;1.20;;
10641;SDS011;5369;49.586;8.646;2022-09-09T07:16:56;2.33;;;1.20;;
10641;SDS011;5369;49.586;8.646;2022-09-09T07:19:22;3.83;;;1.33;;
10641;SDS011;5369;49.586;8.646;2022-09-09T07:21:51;4.50;;;1.27;;
10641;SDS011;5369;49.586;8.646;2022-09-09T07:24:20;2.90;;;1.40;;
10641;SDS011;5369;49.586;8.646;2022-09-09T07:26:48;2.27;;;1.20;;
10641;SDS011;5369;49.586;8.646;2022-09-09T07:29:14;2.90;;;1.13;;
10641;SDS011;5369;49.586;8.646;2022-09-09T07:31:41;3.40;;;1.10;;
10641;SDS011;5369;49.586;8.646;2022-09-09T07:34:12;3.80;;;1.50;;
10641;SDS011;5369;49.586;8.646;2022-09-09T07:36:39;1.20;;;1.03;;
10641;SDS011;5369;49.586;8.646;2022-09-09T07:39:09;4.87;;;1.47;;
10641;SDS011;5369;49.586;8.646;2022-09-09T07:41:37;3.80;;;1.47;;
10641;SDS011;5369;49.586;8.646;2022-09-09T07:44:08;4.77;;;1.40;;
10641;SDS011;5369;49.586;8.646;2022-09-09T07:46:35;3.73;;;1.43;;
10641;SDS011;5369;49.586;8.646;2022-09-09T07:49:01;3.30;;;1.60;;
10641;SDS011;5369;49.586;8.646;2022-09-09T07:51:32;5.37;;;1.50;;
10641;SDS011;5369;49.586;8.646;2022-09-09T07:53:59;4.70;;;1.40;;
10641;SDS011;5369;49.586;8.646;2022-09-09T07:56:28;3.20;;;1.40;;
10641;SDS011;5369;49.586;8.646;2022-09-09T07:58:55;6.90;;;1.67;;
10641;SDS011;5369;49.586;8.646;2022-09-09T08:01:23;3.93;;;1.40;;
10641;SDS011;5369;49.586;8.646;2022-09-09T08:03:58;3.27;;;1.40;;
10641;SDS011;5369;49.586;8.646;2022-09-09T08:06:25;5.03;;;1.53;;
10641;SDS011;5369;49.586;8.646;2022-09-09T08:08:52;4.07;;;1.40;;
10641;SDS011;5369;49.586;8.646;2022-09-09T08:11:21;5.23;;;1.40;;
10641;SDS011;5369;49.586;8.646;2022-09-09T08:13:48;2.93;;;1.10;;
10641;SDS011;5369;49.586;8.646;2022-09-09T08:16:19;4.33;;;1.57;;
10641;SDS011;5369;49.586;8.646;2022-09-09T08:18:49;4.40;;;1.63;;
10641;SDS011;5369;49.586;8.646;2022-09-09T08:21:20;3.80;;;1.60;;
10641;SDS011;5369;49.586;8.646;2022-09-09T08:23:47;5.50;;;1.70;;
10641;SDS011;5369;49.586;8.646;2022-09-09T08:26:15;3.53;;;1.60;;
10641;SDS011;5369;49.586;8.646;2022-09-09T08:28:42;6.27;;;2.03;;
10641;SDS011;5369;49.586;8.646;2022-09-09T08:31:15;5.27;;;1.60;;
10641;SDS011;5369;49.586;8.646;2022-09-09T08:33:42;4.70;;;1.70;;
10641;SDS011;5369;49.586;8.646;2022-09-09T08:36:12;6.13;;;1.60;;
10641;SDS011;5369;49.586;8.646;2022-09-09T08:38:40;5.03;;;1.67;;
10641;SDS011;5369;49.586;8.646;2022-09-09T08:41:54;5.63;;;1.70;;
10641;SDS011;5369;49.586;8.646;2022-09-09T08:44:06;6.20;;;1.47;;
10641;SDS011;5369;49.586;8.646;2022-09-09T08:49:08;4.37;;;1.43;;
10641;SDS011;5369;49.586;8.646;2022-09-09T08:51:39;4.23;;;1.70;;
10641;SDS011;5369;49.586;8.646;2022-09-09T08:54:07;3.93;;;1.33;;
10641;SDS011;5369;49.586;8.646;2022-09-09T08:56:35;6.27;;;1.47;;
10641;SDS011;5369;49.586;8.646;2022-09-09T08:59:02;3.40;;;1.23;;
10641;SDS011;5369;49.586;8.646;2022-09-09T09:07:08;4.90;;;1.57;;
10641;SDS011;5369;49.586;8.646;2022-09-09T09:12:16;3.47;;;1.23;;
10641;SDS011;5369;49.586;8.646;2022-09-09T09:14:44;4.47;;;1.30;;
10641;SDS011;5369;49.586;8.646;2022-09-09T09:17:13;4.27;;;1.50;;
10641;SDS011;5369;49.586;8.646;2022-09-09T09:19:41;5.57;;;1.43;;
10641;SDS011;5369;49.586;8.646;2022-09-09T09:24:42;5.63;;;1.47;;
10641;SDS011;5369;49.586;8.646;2022-09-09T09:27:13;4.70;;;1.20;;
10641;SDS011;5369;49.586;8.646;2022-09-09T09:29:42;3.83;;;1.30;;
10641;SDS011;5369;49.586;8.646;2022-09-09T09:32:14;3.97;;;1.33;;
10641;SDS011;5369;49.586;8.646;2022-09-09T09:34:42;5.10;;;1.30;;
10641;SDS011;5369;49.586;8.646;2022-09-09T09:37:16;5.40;;;1.57;;
10641;SDS011;5369;49.586;8.646;2022-09-09T09:39:45;4.27;;;1.30;;
10641;SDS011;5369;49.586;8.646;2022-09-09T09:42:12;5.30;;;1.50;;
10641;SDS011;5369;49.586;8.646;2022-09-09T09:44:41;5.20;;;1.53;;
10641;SDS011;5369;49.586;8.646;2022-09-09T09:47:14;2.43;;;1.23;;
10641;SDS011;5369;49.586;8.646;2022-09-09T09:49:51;6.30;;;1.50;;
10641;SDS011;5369;49.586;8.646;2022-09-09T09:52:20;4.67;;;1.50;;
10641;SDS011;5369;49.586;8.646;2022-09-09T09:54:47;3.63;;;1.47;;
10641;SDS011;5369;49.586;8.646;2022-09-09T09:57:14;3.87;;;1.43;;
10641;SDS011;5369;49.586;8.646;2022-09-09T09:59:43;6.27;;;1.40;;
10641;SDS011;5369;49.586;8.646;2022-09-09T10:02:20;3.17;;;1.30;;
10641;SDS011;5369;49.586;8.646;2022-09-09T10:05:03;5.13;;;1.60;;
10641;SDS011;5369;49.586;8.646;2022-09-09T10:07:32;7.27;;;1.97;;
10641;SDS011;5369;49.586;8.646;2022-09-09T10:09:59;4.23;;;1.40;;
10641;SDS011;5369;49.586;8.646;2022-09-09T10:15:02;2.33;;;1.17;;
10641;SDS011;5369;49.586;8.646;2022-09-09T10:22:36;5.03;;;1.50;;
10641;SDS011;5369;49.586;8.646;2022-09-09T10:30:35;4.80;;;1.17;;
10641;SDS011;5369;49.586;8.646;2022-09-09T10:35:38;2.03;;;1.00;;
10641;SDS011;5369;49.586;8.646;2022-09-09T10:45:48;2.57;;;1.10;;
10641;SDS011;5369;49.586;8.646;2022-09-09T10:48:22;3.40;;;1.10;;
10641;SDS011;5369;49.586;8.646;2022-09-09T10:53:45;2.33;;;1.20;;
10641;SDS011;5369;49.586;8.646;2022-09-09T10:56:14;3.50;;;1.27;;
10641;SDS011;5369;49.586;8.646;2022-09-09T10:58:44;4.17;;;1.40;;
10641;SDS011;5369;49.586;8.646;2022-09-09T11:04:05;3.20;;;1.60;;
10641;SDS011;5369;49.586;8.646;2022-09-09T11:06:37;2.90;;;1.40;;
10641;SDS011;5369;49.586;8.646;2022-09-09T11:09:08;2.97;;;1.23;;
10641;SDS011;5369;49.586;8.646;2022-09-09T11:11:42;2.97;;;1.57;;
10641;SDS011;5369;49.586;8.646;2022-09-09T11:17:06;4.73;;;1.50;;
10641;SDS011;5369;49.586;8.646;2022-09-09T11:22:15;3.13;;;1.50;;
10641;SDS011;5369;49.586;8.646;2022-09-09T11:25:03;3.33;;;1.50;;
10641;SDS011;5369;49.586;8.646;2022-09-09T11:30:18;7.53;;;1.40;;
10641;SDS011;5369;49.586;8.646;2022-09-09T11:38:01;3.80;;;1.30;;
10641;SDS011;5369;49.586;8.646;2022-09-09T11:40:30;2.43;;;1.10;;
10641;SDS011;5369;49.586;8.646;2022-09-09T11:43:11;3.00;;;1.20;;
10641;SDS011;5369;49.586;8.646;2022-09-09T11:45:39;2.87;;;1.20;;
10641;SDS011;5369;49.586;8.646;2022-09-09T11:48:21;5.17;;;1.33;;
10641;SDS011;5369;49.586;8.646;2022-09-09T11:50:57;3.60;;;1.30;;
10641;SDS011;5369;49.586;8.646;2022-09-09T11:53:23;3.20;;;1.33;;
10641;SDS011;5369;49.586;8.646;2022-09-09T11:58:29;2.37;;;1.10;;
10641;SDS011;5369;49.586;8.646;2022-09-09T12:00:57;3.63;;;1.40;;
10641;SDS011;5369;49.586;8.646;2022-09-09T12:08:36;3.00;;;1.10;;
10641;SDS011;5369;49.586;8.646;2022-09-09T12:11:05;3.83;;;1.20;;
10641;SDS011;5369;49.586;8.646;2022-09-09T12:13:32;4.20;;;1.20;;
10641;SDS011;5369;49.586;8.646;2022-09-09T12:16:01;5.07;;;1.40;;
10641;SDS011;5369;49.586;8.646;2022-09-09T12:18:37;7.10;;;1.47;;
10641;SDS011;5369;49.586;8.646;2022-09-09T12:33:47;4.33;;;1.20;;
10641;SDS011;5369;49.586;8.646;2022-09-09T12:36:17;4.67;;;1.43;;
10641;SDS011;5369;49.586;8.646;2022-09-09T12:38:44;3.63;;;1.33;;
10641;SDS011;5369;49.586;8.646;2022-09-09T12:41:27;5.80;;;1.40;;
10641;SDS011;5369;49.586;8.646;2022-09-09T12:44:04;4.33;;;1.10;;
10641;SDS011;5369;49.586;8.646;2022-09-09T12:46:38;3.57;;;1.00;;
10641;SDS011;5369;49.586;8.646;2022-09-09T12:49:05;3.27;;;0.70;;
10641;SDS011;5369;49.586;8.646;2022-09-09T12:51:46;2.93;;;0.87;;
10641;SDS011;5369;49.586;8.646;2022-09-09T12:54:12;1.97;;;0.80;;
10641;SDS011;5369;49.586;8.646;2022-09-09T12:56:44;2.10;;;0.80;;
10641;SDS011;5369;49.586;8.646;2022-09-09T12:59:21;1.57;;;0.90;;
10641;SDS011;5369;49.586;8.646;2022-09-09T13:01:54;2.27;;;0.90;;
10641;SDS011;5369;49.586;8.646;2022-09-09T13:04:21;3.73;;;0.93;;
10641;SDS011;5369;49.586;8.646;2022-09-09T13:06:47;1.47;;;0.87;;
10641;SDS011;5369;49.586;8.646;2022-09-09T13:09:14;4.33;;;1.30;;
10641;SDS011;5369;49.586;8.646;2022-09-09T13:11:41;3.77;;;0.90;;
10641;SDS011;5369;49.586;8.646;2022-09-09T13:14:24;3.00;;;1.20;;
10641;SDS011;5369;49.586;8.646;2022-09-09T13:16:56;2.70;;;1.20;;
10641;SDS011;5369;49.586;8.646;2022-09-09T13:19:22;2.23;;;0.97;;
10641;SDS011;5369;49.586;8.646;2022-09-09T13:21:52;2.50;;;1.00;;
10641;SDS011;5369;49.586;8.646;2022-09-09T13:24:29;2.50;;;1.00;;
10641;SDS011;5369;49.586;8.646;2022-09-09T13:26:57;1.97;;;0.97;;
10641;SDS011;5369;49.586;8.646;2022-09-09T13:29:23;4.00;;;1.20;;
10641;SDS011;5369;49.586;8.646;2022-09-09T13:31:50;1.70;;;1.07;;
10641;SDS011;5369;49.586;8.646;2022-09-09T13:34:28;5.17;;;1.60;;
10641;SDS011;5369;49.586;8.646;2022-09-09T13:40:52;7.13;;;1.80;;
10641;SDS011;5369;49.586;8.646;2022-09-09T13:43:21;3.07;;;1.50;;
10641;SDS011;5369;49.586;8.646;2022-09-09T13:45:58;3.77;;;1.40;;
10641;SDS011;5369;49.586;8.646;2022-09-09T13:48:25;4.50;;;1.63;;
10641;SDS011;5369;49.586;8.646;2022-09-09T13:53:41;6.03;;;1.90;;
10641;SDS011;5369;49.586;8.646;2022-09-09T13:56:07;4.97;;;1.40;;
10641;SDS011;5369;49.586;8.646;2022-09-09T13:58:33;5.23;;;1.60;;
10641;SDS011;5369;49.586;8.646;2022-09-09T14:01:00;3.00;;;1.40;;
10641;SDS011;5369;49.586;8.646;2022-09-09T14:03:26;3.10;;;1.30;;
10641;SDS011;5369;49.586;8.646;2022-09-09T14:05:52;2.40;;;1.00;;
10641;SDS011;5369;49.586;8.646;2022-09-09T14:08:23;3.83;;;1.47;;
10641;SDS011;5369;49.586;8.646;2022-09-09T14:10:50;3.13;;;1.30;;
10641;SDS011;5369;49.586;8.646;2022-09-09T14:13:17;3.23;;;1.33;;
10641;SDS011;5369;49.586;8.646;2022-09-09T14:15:43;2.87;;;1.10;;
10641;SDS011;5369;49.586;8.646;2022-09-09T14:18:11;2.30;;;1.00;;
10641;SDS011;5369;49.586;8.646;2022-09-09T14:20:38;2.57;;;1.10;;
10641;SDS011;5369;49.586;8.646;2022-09-09T14:23:04;2.67;;;1.17;;
10641;SDS011;5369;49.586;8.646;2022-09-09T14:25:30;3.43;;;1.03;;
10641;SDS011;5369;49.586;8.646;2022-09-09T14:27:57;1.63;;;0.97;;
10641;SDS011;5369;49.586;8.646;2022-09-09T14:30:23;2.10;;;0.93;;
10641;SDS011;5369;49.586;8.646;2022-09-09T14:32:49;1.50;;;0.90;;
10641;SDS011;5369;49.586;8.646;2022-09-09T14:35:15;2.50;;;1.30;;
10641;SDS011;5369;49.586;8.646;2022-09-09T14:37:43;1.90;;;1.07;;
10641;SDS011;5369;49.586;8.646;2022-09-09T14:40:09;1.57;;;0.90;;
10641;SDS011;5369;49.586;8.646;2022-09-09T14:42:36;2.10;;;1.13;;
10641;SDS011;5369;49.586;8.646;2022-09-09T14:45:02;3.37;;;1.17;;
10641;SDS011;5369;49.586;8.646;2022-09-09T14:47:29;2.53;;;0.93;;
10641;SDS011;5369;49.586;8.646;2022-09-09T14:49:56;1.97;;;1.00;;
10641;SDS011;5369;49.586;8.646;2022-09-09T14:52:22;1.07;;;0.90;;
10641;SDS011;5369;49.586;8.646;2022-09-09T14:54:48;2.17;;;1.23;;
10641;SDS011;5369;49.586;8.646;2022-09-09T14:57:14;1.43;;;0.87;;
10641;SDS011;5369;49.586;8.646;2022-09-09T14:59:40;3.60;;;1.10;;
10641;SDS011;5369;49.586;8.646;2022-09-09T15:02:08;1.17;;;0.80;;
10641;SDS011;5369;49.586;8.646;2022-09-09T15:04:34;1.70;;;0.90;;
10641;SDS011;5369;49.586;8.646;2022-09-09T15:07:00;0.80;;;0.60;;
10641;SDS011;5369;49.586;8.646;2022-09-09T15:09:26;2.47;;;0.90;;
10641;SDS011;5369;49.586;8.646;2022-09-09T15:11:53;1.97;;;1.00;;
10641;SDS011;5369;49.586;8.646;2022-09-09T15:14:19;1.53;;;0.90;;
10641;SDS011;5369;49.586;8.646;2022-09-09T15:16:45;2.00;;;0.90;;
10641;SDS011;5369;49.586;8.646;2022-09-09T15:19:12;1.77;;;0.80;;
10641;SDS011;5369;49.586;8.646;2022-09-09T15:21:38;2.47;;;1.00;;
10641;SDS011;5369;49.586;8.646;2022-09-09T15:24:04;2.23;;;1.00;;
10641;SDS011;5369;49.586;8.646;2022-09-09T15:26:33;2.10;;;1.00;;
10641;SDS011;5369;49.586;8.646;2022-09-09T15:29:01;2.23;;;1.00;;
10641;SDS011;5369;49.586;8.646;2022-09-09T15:31:28;1.87;;;1.00;;
10641;SDS011;5369;49.586;8.646;2022-09-09T15:36:26;1.90;;;0.90;;
10641;SDS011;5369;49.586;8.646;2022-09-09T15:38:53;2.10;;;0.90;;
10641;SDS011;5369;49.586;8.646;2022-09-09T15:41:20;1.17;;;0.93;;
10641;SDS011;5369;49.586;8.646;2022-09-09T15:43:47;1.97;;;0.87;;
10641;SDS011;5369;49.586;8.646;2022-09-09T15:48:49;2.77;;;0.90;;
10641;SDS011;5369;49.586;8.646;2022-09-09T15:51:16;2.00;;;0.90;;
10641;SDS011;5369;49.586;8.646;2022-09-09T15:53:42;3.90;;;1.20;;
10641;SDS011;5369;49.586;8.646;2022-09-09T15:56:08;3.93;;;1.20;;
10641;SDS011;5369;49.586;8.646;2022-09-09T15:58:35;2.73;;;1.10;;
10641;SDS011;5369;49.586;8.646;2022-09-09T16:01:02;3.33;;;1.13;;
10641;SDS011;5369;49.586;8.646;2022-09-09T16:03:30;2.07;;;0.90;;
10641;SDS011;5369;49.586;8.646;2022-09-09T16:05:56;1.83;;;0.80;;
10641;SDS011;5369;49.586;8.646;2022-09-09T16:08:22;2.90;;;0.90;;
10641;SDS011;5369;49.586;8.646;2022-09-09T16:10:48;2.27;;;0.97;;
10641;SDS011;5369;49.586;8.646;2022-09-09T16:13:15;2.30;;;1.00;;
10641;SDS011;5369;49.586;8.646;2022-09-09T16:15:41;2.43;;;1.20;;
10641;SDS011;5369;49.586;8.646;2022-09-09T16:18:07;1.40;;;1.00;;
10641;SDS011;5369;49.586;8.646;2022-09-09T16:20:33;2.10;;;1.10;;
10641;SDS011;5369;49.586;8.646;2022-09-09T16:23:00;2.27;;;1.10;;
10641;SDS011;5369;49.586;8.646;2022-09-09T16:25:27;2.67;;;0.97;;
10641;SDS011;5369;49.586;8.646;2022-09-09T16:27:53;2.30;;;1.00;;
10641;SDS011;5369;49.586;8.646;2022-09-09T16:30:19;2.03;;;0.80;;
10641;SDS011;5369;49.586;8.646;2022-09-09T16:32:46;1.77;;;0.83;;
10641;SDS011;5369;49.586;8.646;2022-09-09T16:35:12;2.70;;;0.90;;
10641;SDS011;5369;49.586;8.646;2022-09-09T16:37:38;2.20;;;0.80;;
10641;SDS011;5369;49.586;8.646;2022-09-09T16:40:05;2.00;;;0.87;;
10641;SDS011;5369;49.586;8.646;2022-09-09T16:42:31;1.77;;;0.80;;
10641;SDS011;5369;49.586;8.646;2022-09-09T16:44:57;1.50;;;0.83;;
10641;SDS011;5369;49.586;8.646;2022-09-09T16:47:23;1.30;;;0.90;;
10641;SDS011;5369;49.586;8.646;2022-09-09T16:49:50;1.40;;;0.90;;
10641;SDS011;5369;49.586;8.646;2022-09-09T16:52:16;1.47;;;1.00;;
10641;SDS011;5369;49.586;8.646;2022-09-09T16:54:42;1.00;;;0.90;;
10641;SDS011;5369;49.586;8.646;2022-09-09T16:57:10;1.30;;;0.80;;
10641;SDS011;5369;49.586;8.646;2022-09-09T16:59:36;2.40;;;0.97;;
10641;SDS011;5369;49.586;8.646;2022-09-09T17:02:02;0.93;;;0.80;;
10641;SDS011;5369;49.586;8.646;2022-09-09T17:04:30;1.00;;;0.90;;
10641;SDS011;5369;49.586;8.646;2022-09-09T17:06:57;2.17;;;0.80;;
10641;SDS011;5369;49.586;8.646;2022-09-09T17:09:25;1.20;;;0.90;;
10641;SDS011;5369;49.586;8.646;2022-09-09T17:11:54;2.13;;;1.00;;
10641;SDS011;5369;49.586;8.646;2022-09-09T17:14:21;0.93;;;0.80;;
10641;SDS011;5369;49.586;8.646;2022-09-09T17:16:47;2.00;;;1.00;;
10641;SDS011;5369;49.586;8.646;2022-09-09T17:19:13;1.90;;;0.93;;